createdAt,value
2019-02-24T00:00:44.118Z,12.10
2019-02-24T00:03:12.244Z,12.10
2019-02-24T00:05:40.450Z,10.28
2019-02-24T00:08:08.625Z,10.48
2019-02-24T00:10:36.797Z,10.00
2019-02-24T00:13:05.166Z,9.63
2019-02-24T00:15:33.294Z,8.83
2019-02-24T00:18:01.582Z,8.18
2019-02-24T00:20:29.925Z,8.58
2019-02-24T00:22:58.440Z,10.50
2019-02-24T00:25:26.642Z,9.20
2019-02-24T00:27:54.857Z,10.23
2019-02-24T00:30:23.481Z,10.32
2019-02-24T00:32:51.655Z,9.65
2019-02-24T00:35:19.828Z,10.03
2019-02-24T00:37:47.976Z,9.35
2019-02-24T00:40:16.193Z,8.55
2019-02-24T00:42:44.433Z,9.48
2019-02-24T00:45:12.589Z,9.98
2019-02-24T00:47:40.805Z,12.75
2019-02-24T00:50:09.438Z,10.15
2019-02-24T00:52:37.639Z,9.75
2019-02-24T00:55:06.444Z,9.15
2019-02-24T00:57:34.778Z,9.25
2019-02-24T01:00:02.899Z,10.43
2019-02-24T01:02:31.156Z,10.35
2019-02-24T01:04:59.736Z,9.53
2019-02-24T01:07:27.936Z,9.60
2019-02-24T01:09:56.142Z,10.65
2019-02-24T01:12:24.350Z,10.48
2019-02-24T01:14:52.652Z,11.05
2019-02-24T01:17:20.832Z,9.53
2019-02-24T01:19:49.032Z,6.90
2019-02-24T01:22:17.170Z,9.78
2019-02-24T01:24:45.327Z,8.60
2019-02-24T01:27:13.458Z,6.65
2019-02-24T01:29:41.662Z,8.70
2019-02-24T01:32:09.874Z,9.28
2019-02-24T01:34:38.025Z,9.23
2019-02-24T01:37:07.023Z,8.68
2019-02-24T01:39:36.811Z,10.20
2019-02-24T01:42:05.247Z,6.53
2019-02-24T01:44:33.403Z,7.90
2019-02-24T01:47:02.023Z,8.95
2019-02-24T01:49:30.378Z,10.58
2019-02-24T01:51:58.611Z,8.78
2019-02-24T01:54:26.876Z,8.58
2019-02-24T01:56:55.759Z,9.25
2019-02-24T01:59:23.971Z,8.48
2019-02-24T02:01:52.207Z,9.73
2019-02-24T02:04:23.860Z,9.30
2019-02-24T02:06:52.666Z,7.20
2019-02-24T02:09:22.452Z,9.48
2019-02-24T02:11:51.176Z,9.37
2019-02-24T02:14:19.695Z,10.48
2019-02-24T02:16:47.934Z,10.13
2019-02-24T02:19:16.309Z,8.90
2019-02-24T02:21:44.852Z,8.73
2019-02-24T02:24:13.081Z,8.08
2019-02-24T02:26:41.337Z,8.85
2019-02-24T02:29:09.958Z,7.47
2019-02-24T02:31:39.002Z,9.60
2019-02-24T02:34:07.575Z,9.85
2019-02-24T02:36:36.230Z,8.80
2019-02-24T02:39:05.107Z,8.95
2019-02-24T02:41:33.388Z,8.13
2019-02-24T02:44:02.090Z,9.85
2019-02-24T02:46:30.825Z,8.35
2019-02-24T02:48:59.869Z,7.22
2019-02-24T02:51:28.439Z,8.35
2019-02-24T02:53:58.410Z,7.37
2019-02-24T02:56:29.781Z,7.55
2019-02-24T02:58:58.097Z,8.70
2019-02-24T03:01:29.836Z,8.25
2019-02-24T03:04:01.650Z,8.13
2019-02-24T03:06:44.755Z,9.38
2019-02-24T03:09:12.956Z,7.72
2019-02-24T03:11:41.144Z,9.13
2019-02-24T03:14:09.368Z,8.78
2019-02-24T03:16:37.700Z,8.48
2019-02-24T03:19:05.867Z,9.48
2019-02-24T03:21:34.159Z,9.35
2019-02-24T03:24:02.376Z,10.30
2019-02-24T03:26:30.538Z,7.95
2019-02-24T03:29:04.196Z,9.05
2019-02-24T03:31:28.759Z,9.85
2019-02-24T03:33:57.078Z,10.08
2019-02-24T03:36:25.333Z,10.98
2019-02-24T03:38:53.669Z,9.95
2019-02-24T03:41:21.906Z,10.15
2019-02-24T03:43:50.176Z,11.05
2019-02-24T03:46:18.591Z,11.48
2019-02-24T03:48:46.801Z,12.45
2019-02-24T03:51:15.044Z,10.55
2019-02-24T03:53:43.248Z,10.40
2019-02-24T03:56:11.453Z,10.58
2019-02-24T03:58:39.647Z,10.85
2019-02-24T04:01:07.845Z,11.12
2019-02-24T04:03:36.410Z,10.32
2019-02-24T04:06:04.635Z,9.28
2019-02-24T04:08:32.871Z,8.15
2019-02-24T04:11:01.058Z,8.73
2019-02-24T04:13:29.255Z,7.78
2019-02-24T04:15:57.416Z,8.43
2019-02-24T04:18:25.699Z,8.40
2019-02-24T04:20:53.831Z,7.55
2019-02-24T04:23:22.097Z,7.25
2019-02-24T04:25:50.348Z,7.90
2019-02-24T04:28:18.551Z,6.95
2019-02-24T04:30:46.723Z,7.95
2019-02-24T04:33:14.872Z,9.85
2019-02-24T04:35:43.080Z,11.50
2019-02-24T04:38:11.378Z,9.35
2019-02-24T04:40:39.679Z,10.38
2019-02-24T04:43:07.875Z,10.13
2019-02-24T04:45:36.082Z,8.93
2019-02-24T04:48:04.292Z,9.23
2019-02-24T04:50:32.488Z,8.20
2019-02-24T04:53:00.634Z,7.85
2019-02-24T04:55:29.009Z,8.55
2019-02-24T04:57:57.207Z,10.13
2019-02-24T05:00:25.517Z,9.40
2019-02-24T05:02:53.715Z,8.20
2019-02-24T05:05:22.013Z,10.20
2019-02-24T05:07:50.185Z,8.70
2019-02-24T05:10:18.410Z,9.38
2019-02-24T05:12:46.774Z,10.60
2019-02-24T05:15:14.958Z,11.28
2019-02-24T05:17:43.148Z,11.08
2019-02-24T05:20:11.409Z,12.20
2019-02-24T05:22:39.702Z,10.88
2019-02-24T05:25:08.183Z,12.05
2019-02-24T05:27:36.269Z,10.95
2019-02-24T05:30:04.534Z,10.13
2019-02-24T05:32:32.736Z,9.73
2019-02-24T05:35:01.182Z,9.40
2019-02-24T05:37:29.288Z,9.88
2019-02-24T05:39:57.536Z,9.73
2019-02-24T05:42:25.786Z,9.98
2019-02-24T05:44:53.966Z,9.48
2019-02-24T05:47:22.158Z,9.73
2019-02-24T05:49:50.347Z,9.28
2019-02-24T05:52:18.561Z,8.43
2019-02-24T05:54:46.728Z,9.68
2019-02-24T05:57:14.941Z,9.63
2019-02-24T05:59:43.126Z,10.90
2019-02-24T06:02:11.327Z,10.53
2019-02-24T06:04:39.447Z,10.80
2019-02-24T06:07:07.831Z,11.15
2019-02-24T06:09:35.957Z,9.80
2019-02-24T06:12:04.066Z,8.48
2019-02-24T06:14:32.247Z,8.40
2019-02-24T06:17:00.398Z,9.85
2019-02-24T06:19:28.534Z,9.65
2019-02-24T06:21:56.739Z,9.40
2019-02-24T06:24:24.949Z,9.48
2019-02-24T06:26:53.081Z,9.28
2019-02-24T06:29:21.400Z,8.18
2019-02-24T06:31:49.603Z,8.93
2019-02-24T06:34:17.827Z,9.33
2019-02-24T06:36:46.042Z,7.45
2019-02-24T06:39:14.236Z,7.53
2019-02-24T06:41:42.426Z,9.58
2019-02-24T06:44:10.572Z,8.30
2019-02-24T06:46:38.739Z,9.15
2019-02-24T06:49:06.874Z,8.78
2019-02-24T06:51:35.153Z,9.08
2019-02-24T06:54:03.337Z,8.18
2019-02-24T06:56:31.530Z,8.25
2019-02-24T06:58:59.671Z,9.53
2019-02-24T07:01:27.863Z,9.83
2019-02-24T07:03:59.360Z,9.30
2019-02-24T07:06:27.543Z,9.20
2019-02-24T07:08:55.759Z,9.93
2019-02-24T07:11:23.908Z,9.85
2019-02-24T07:13:52.348Z,10.25
2019-02-24T07:16:20.542Z,9.10
2019-02-24T07:18:48.701Z,10.30
2019-02-24T07:21:17.042Z,8.98
2019-02-24T07:23:45.237Z,10.68
2019-02-24T07:26:13.361Z,10.40
2019-02-24T07:28:41.562Z,10.70
2019-02-24T07:31:09.689Z,9.88
2019-02-24T07:33:37.838Z,9.78
2019-02-24T07:36:06.011Z,8.93
2019-02-24T07:38:34.162Z,10.03
2019-02-24T07:41:02.269Z,10.43
2019-02-24T07:43:30.528Z,11.08
2019-02-24T07:45:58.776Z,9.98
2019-02-24T07:48:26.980Z,10.20
2019-02-24T07:50:55.146Z,9.70
2019-02-24T07:53:23.505Z,10.40
2019-02-24T07:55:51.704Z,10.78
2019-02-24T07:58:19.922Z,9.88
2019-02-24T08:00:48.073Z,9.85
2019-02-24T08:03:16.238Z,9.68
2019-02-24T08:05:44.438Z,9.25
2019-02-24T08:08:16.482Z,10.25
2019-02-24T08:10:42.493Z,10.70
2019-02-24T08:13:10.944Z,10.10
2019-02-24T08:15:39.160Z,10.50
2019-02-24T08:18:07.345Z,10.05
2019-02-24T08:20:35.561Z,9.33
2019-02-24T08:23:03.890Z,9.33
2019-02-24T08:25:32.084Z,9.73
2019-02-24T08:28:00.220Z,9.70
2019-02-24T08:30:28.394Z,9.95
2019-02-24T08:32:56.853Z,9.50
2019-02-24T08:35:25.092Z,9.18
2019-02-24T08:37:53.297Z,10.10
2019-02-24T08:40:21.733Z,10.03
2019-02-24T08:42:49.887Z,7.35
2019-02-24T08:45:18.054Z,7.45
2019-02-24T08:47:46.204Z,6.47
2019-02-24T08:50:14.425Z,6.12
2019-02-24T08:52:42.782Z,6.33
2019-02-24T08:55:10.967Z,5.67
2019-02-24T08:57:39.226Z,6.00
2019-02-24T09:00:08.891Z,6.10
2019-02-24T09:02:37.126Z,4.83
2019-02-24T09:05:05.415Z,7.00
2019-02-24T09:07:33.548Z,7.58
2019-02-24T09:10:01.663Z,6.25
2019-02-24T09:12:29.902Z,6.65
2019-02-24T09:14:58.222Z,5.97
2019-02-24T09:17:26.415Z,6.30
2019-02-24T09:19:54.862Z,6.10
2019-02-24T09:22:23.146Z,6.17
2019-02-24T09:24:51.293Z,5.35
2019-02-24T09:27:19.628Z,5.80
2019-02-24T09:29:47.849Z,5.05
2019-02-24T09:32:16.142Z,5.08
2019-02-24T09:34:44.289Z,5.65
2019-02-24T09:37:12.469Z,5.75
2019-02-24T09:39:40.675Z,5.72
2019-02-24T09:42:08.924Z,5.47
2019-02-24T09:44:37.245Z,6.83
2019-02-24T09:47:05.575Z,5.35
2019-02-24T09:49:33.773Z,6.08
2019-02-24T09:52:02.106Z,5.30
2019-02-24T09:54:30.322Z,5.05
2019-02-24T09:56:58.595Z,5.12
2019-02-24T09:59:27.183Z,5.97
2019-02-24T10:01:55.391Z,3.70
2019-02-24T10:04:23.653Z,4.60
2019-02-24T10:06:52.016Z,4.67
2019-02-24T10:09:20.328Z,4.78
2019-02-24T10:11:48.858Z,4.22
2019-02-24T10:14:17.170Z,4.17
2019-02-24T10:16:45.363Z,3.85
2019-02-24T10:19:13.762Z,4.08
2019-02-24T10:21:42.189Z,4.45
2019-02-24T10:24:11.268Z,4.58
2019-02-24T10:26:39.550Z,3.42
2019-02-24T10:29:09.566Z,3.80
2019-02-24T10:31:37.867Z,4.40
2019-02-24T10:34:07.581Z,4.33
2019-02-24T10:36:36.138Z,2.87
2019-02-24T10:39:05.277Z,3.58
2019-02-24T10:41:33.568Z,3.33
2019-02-24T10:44:01.738Z,3.25
2019-02-24T10:46:29.981Z,3.55
2019-02-24T10:49:03.635Z,3.70
2019-02-24T10:51:31.471Z,3.45
2019-02-24T10:53:59.607Z,3.27
2019-02-24T10:56:27.876Z,3.22
2019-02-24T10:58:56.116Z,2.92
2019-02-24T11:01:29.682Z,2.87
2019-02-24T11:03:54.462Z,2.70
2019-02-24T11:06:22.917Z,3.20
2019-02-24T11:08:51.253Z,3.25
2019-02-24T11:11:19.609Z,3.00
2019-02-24T11:13:48.106Z,3.33
2019-02-24T11:16:16.345Z,3.25
2019-02-24T11:18:44.624Z,2.85
2019-02-24T11:21:12.907Z,2.77
2019-02-24T11:23:41.127Z,2.55
2019-02-24T11:26:09.298Z,2.70
2019-02-24T11:28:37.552Z,2.50
2019-02-24T11:31:05.933Z,2.47
2019-02-24T11:33:34.149Z,2.98
2019-02-24T11:36:02.369Z,2.45
2019-02-24T11:38:30.575Z,2.95
2019-02-24T11:40:58.797Z,2.75
2019-02-24T11:43:27.105Z,2.42
2019-02-24T11:45:55.384Z,2.50
2019-02-24T11:48:23.619Z,2.30
2019-02-24T11:50:51.793Z,2.58
2019-02-24T11:53:20.131Z,1.92
2019-02-24T11:55:48.361Z,2.22
2019-02-24T11:58:16.627Z,2.33
2019-02-24T12:00:44.786Z,2.27
2019-02-24T12:03:12.986Z,2.55
2019-02-24T12:05:41.188Z,2.02
2019-02-24T12:08:09.443Z,2.05
2019-02-24T12:10:37.781Z,1.80
2019-02-24T12:13:08.141Z,2.17
2019-02-24T12:15:36.430Z,1.92
2019-02-24T12:18:04.646Z,2.22
2019-02-24T12:20:33.274Z,2.22
2019-02-24T12:23:01.632Z,1.82
2019-02-24T12:25:29.820Z,2.40
2019-02-24T12:27:58.086Z,2.50
2019-02-24T12:30:26.408Z,1.80
2019-02-24T12:32:54.658Z,1.77
2019-02-24T12:35:22.822Z,2.35
2019-02-24T12:37:51.132Z,2.40
2019-02-24T12:40:19.513Z,1.72
2019-02-24T12:42:47.738Z,1.98
2019-02-24T12:45:15.906Z,2.12
2019-02-24T12:47:44.127Z,2.10
2019-02-24T12:50:12.440Z,2.30
2019-02-24T12:52:40.776Z,2.17
2019-02-24T12:55:09.149Z,2.10
2019-02-24T12:57:37.494Z,2.20
2019-02-24T13:00:08.472Z,2.10
2019-02-24T13:02:38.199Z,1.85
2019-02-24T13:05:06.805Z,2.30
2019-02-24T13:07:35.023Z,1.90
2019-02-24T13:10:03.685Z,2.10
2019-02-24T13:12:31.905Z,1.98
2019-02-24T13:15:00.266Z,2.00
2019-02-24T13:17:28.523Z,1.70
2019-02-24T13:19:57.120Z,1.55
2019-02-24T13:22:25.487Z,1.87
2019-02-24T13:24:53.871Z,1.80
2019-02-24T13:27:22.205Z,1.77
2019-02-24T13:29:50.431Z,1.20
2019-02-24T13:32:18.734Z,1.80
2019-02-24T13:34:47.096Z,1.60
2019-02-24T13:37:15.299Z,1.82
2019-02-24T13:39:43.985Z,1.35
2019-02-24T13:42:12.398Z,1.50
2019-02-24T13:44:40.672Z,1.35
2019-02-24T13:47:08.975Z,1.47
2019-02-24T13:49:37.264Z,1.67
2019-02-24T13:52:05.420Z,1.45
2019-02-24T13:54:33.642Z,1.30
2019-02-24T13:57:01.877Z,1.17
2019-02-24T13:59:30.040Z,1.20
2019-02-24T14:01:58.302Z,0.93
2019-02-24T14:04:26.511Z,0.93
2019-02-24T14:06:54.891Z,0.80
2019-02-24T14:09:23.269Z,0.90
2019-02-24T14:11:51.453Z,0.72
2019-02-24T14:14:19.614Z,0.68
2019-02-24T14:16:47.901Z,0.70
2019-02-24T14:19:16.231Z,0.62
2019-02-24T14:21:44.535Z,0.82
2019-02-24T14:24:12.713Z,0.80
2019-02-24T14:26:40.845Z,0.93
2019-02-24T14:29:09.057Z,1.02
2019-02-24T14:31:37.452Z,1.10
2019-02-24T14:34:05.758Z,1.20
2019-02-24T14:36:34.060Z,1.17
2019-02-24T14:39:02.244Z,1.10
2019-02-24T14:41:30.597Z,0.80
2019-02-24T14:43:59.292Z,0.88
2019-02-24T14:46:27.692Z,0.90
2019-02-24T14:48:58.188Z,1.02
2019-02-24T14:51:26.201Z,0.90
2019-02-24T14:53:54.392Z,0.93
2019-02-24T14:56:22.602Z,1.12
2019-02-24T14:58:50.802Z,0.82
2019-02-24T15:01:19.020Z,0.70
2019-02-24T15:03:47.259Z,1.20
2019-02-24T15:06:15.487Z,1.25
2019-02-24T15:08:43.759Z,1.22
2019-02-24T15:11:11.998Z,1.10
2019-02-24T15:13:40.283Z,1.77
2019-02-24T15:16:08.681Z,1.47
2019-02-24T15:18:37.039Z,1.30
2019-02-24T15:21:05.527Z,2.17
2019-02-24T15:23:33.836Z,1.42
2019-02-24T15:26:02.161Z,1.82
2019-02-24T15:28:30.533Z,1.70
2019-02-24T15:30:58.846Z,2.72
2019-02-24T15:33:27.198Z,3.27
2019-02-24T15:35:55.625Z,2.83
2019-02-24T15:38:24.269Z,2.47
2019-02-24T15:40:52.506Z,2.80
2019-02-24T15:43:20.973Z,3.62
2019-02-24T15:45:49.454Z,3.47
2019-02-24T15:48:17.739Z,2.60
2019-02-24T15:50:46.144Z,2.87
2019-02-24T15:53:14.536Z,4.12
2019-02-24T15:55:43.083Z,2.25
2019-02-24T15:58:11.817Z,2.72
2019-02-24T16:00:40.691Z,3.90
2019-02-24T16:03:09.057Z,2.77
2019-02-24T16:05:37.306Z,2.02
2019-02-24T16:08:06.324Z,2.12
2019-02-24T16:10:34.778Z,1.60
2019-02-24T16:13:03.081Z,1.72
2019-02-24T16:15:32.275Z,2.15
2019-02-24T16:18:00.995Z,2.02
2019-02-24T16:20:29.410Z,1.92
2019-02-24T16:22:57.656Z,2.77
2019-02-24T16:25:25.971Z,3.02
2019-02-24T16:27:54.920Z,2.92
2019-02-24T16:30:23.912Z,2.62
2019-02-24T16:32:52.168Z,1.80
2019-02-24T16:35:20.525Z,3.08
2019-02-24T16:37:48.916Z,4.65
2019-02-24T16:40:18.711Z,7.83
2019-02-24T16:42:46.932Z,2.40
2019-02-24T16:45:15.693Z,2.95
2019-02-24T16:47:44.024Z,3.30
2019-02-24T16:50:14.252Z,3.20
2019-02-24T16:52:42.739Z,3.60
2019-02-24T16:55:12.220Z,2.92
2019-02-24T16:57:40.764Z,2.70
2019-02-24T17:00:12.618Z,2.45
2019-02-24T17:02:41.004Z,3.22
2019-02-24T17:05:10.036Z,3.75
2019-02-24T17:07:38.946Z,3.87
2019-02-24T17:10:08.136Z,3.00
2019-02-24T17:12:36.587Z,1.92
2019-02-24T17:15:05.638Z,2.20
2019-02-24T17:17:34.597Z,2.87
2019-02-24T17:20:03.280Z,3.15
2019-02-24T17:22:31.725Z,3.30
2019-02-24T17:25:00.352Z,3.17
2019-02-24T17:27:30.057Z,2.70
2019-02-24T17:29:59.042Z,3.35
2019-02-24T17:32:28.241Z,4.42
2019-02-24T17:34:58.440Z,3.30
2019-02-24T17:37:27.207Z,2.62
2019-02-24T17:39:56.793Z,5.20
2019-02-24T17:42:28.934Z,3.67
2019-02-24T17:44:57.891Z,3.37
2019-02-24T17:47:26.750Z,3.77
2019-02-24T17:49:56.359Z,3.83
2019-02-24T17:52:25.677Z,4.80
2019-02-24T17:54:55.822Z,6.72
2019-02-24T17:57:25.057Z,7.90
2019-02-24T17:59:54.936Z,6.17
2019-02-24T18:02:25.026Z,6.35
2019-02-24T18:04:54.099Z,4.95
2019-02-24T18:07:31.655Z,4.37
2019-02-24T18:10:02.302Z,4.70
2019-02-24T18:12:31.772Z,3.77
2019-02-24T18:15:01.762Z,3.62
2019-02-24T18:17:30.677Z,3.70
2019-02-24T18:20:03.889Z,5.40
2019-02-24T18:22:33.606Z,4.47
2019-02-24T18:25:03.674Z,4.03
2019-02-24T18:27:33.575Z,3.45
2019-02-24T18:30:03.188Z,3.43
2019-02-24T18:32:33.759Z,3.60
2019-02-24T18:37:32.776Z,4.67
2019-02-24T18:40:03.008Z,4.45
2019-02-24T18:42:32.880Z,4.05
2019-02-24T18:45:03.008Z,2.98
2019-02-24T18:47:33.229Z,3.22
2019-02-24T18:50:03.714Z,3.85
2019-02-24T18:52:33.325Z,3.30
2019-02-24T18:55:03.362Z,2.58
2019-02-24T18:57:33.378Z,2.67
2019-02-24T19:00:03.433Z,2.77
2019-02-24T19:02:33.557Z,2.52
2019-02-24T19:05:04.974Z,2.80
2019-02-24T19:07:34.527Z,2.90
2019-02-24T19:10:04.722Z,2.55
2019-02-24T19:12:34.869Z,2.70
2019-02-24T19:15:03.533Z,2.58
2019-02-24T19:17:32.819Z,2.50
2019-02-24T19:20:04.478Z,2.60
2019-02-24T19:22:33.866Z,3.17
2019-02-24T19:25:03.622Z,2.98
2019-02-24T19:27:32.310Z,2.07
2019-02-24T19:30:01.782Z,2.22
2019-02-24T19:32:31.590Z,3.08
2019-02-24T19:35:02.424Z,1.70
2019-02-24T19:37:32.145Z,2.62
2019-02-24T19:40:02.299Z,3.67
2019-02-24T19:42:31.732Z,3.22
2019-02-24T19:45:01.338Z,4.42
2019-02-24T19:47:32.507Z,5.00
2019-02-24T19:50:02.677Z,5.65
2019-02-24T19:52:32.216Z,5.53
2019-02-24T19:55:03.633Z,4.00
2019-02-24T19:57:33.338Z,4.85
2019-02-24T20:00:03.077Z,3.70
2019-02-24T20:02:32.533Z,5.20
2019-02-24T20:05:01.812Z,4.00
2019-02-24T20:07:31.073Z,4.65
2019-02-24T20:10:00.330Z,4.33
2019-02-24T20:12:29.503Z,6.28
2019-02-24T20:14:59.122Z,6.03
2019-02-24T20:17:28.109Z,5.53
2019-02-24T20:19:56.834Z,4.55
2019-02-24T20:22:25.802Z,3.62
2019-02-24T20:24:54.932Z,4.30
2019-02-24T20:27:23.804Z,4.12
2019-02-24T20:29:52.823Z,3.35
2019-02-24T20:32:21.800Z,3.75
2019-02-24T20:34:50.659Z,4.22
2019-02-24T20:37:19.986Z,2.98
2019-02-24T20:39:48.994Z,4.22
2019-02-24T20:42:18.837Z,4.00
2019-02-24T20:44:47.528Z,4.30
2019-02-24T20:47:17.623Z,5.35
2019-02-24T20:49:46.068Z,5.10
2019-02-24T20:52:15.069Z,4.00
2019-02-24T20:54:43.595Z,5.20
2019-02-24T20:57:12.540Z,5.55
2019-02-24T20:59:41.643Z,4.30
2019-02-24T21:02:11.045Z,4.95
2019-02-24T21:04:40.403Z,4.25
2019-02-24T21:07:08.831Z,6.03
2019-02-24T21:09:37.389Z,6.17
2019-02-24T21:12:06.514Z,6.85
2019-02-24T21:14:35.593Z,5.47
2019-02-24T21:17:04.176Z,4.10
2019-02-24T21:19:32.673Z,3.92
2019-02-24T21:22:04.109Z,4.42
2019-02-24T21:24:32.971Z,4.12
2019-02-24T21:27:01.402Z,4.00
2019-02-24T21:29:30.376Z,4.08
2019-02-24T21:31:59.140Z,4.72
2019-02-24T21:34:28.177Z,4.30
2019-02-24T21:36:56.542Z,3.75
2019-02-24T21:39:24.878Z,4.40
2019-02-24T21:41:53.306Z,4.30
2019-02-24T21:44:22.270Z,3.72
2019-02-24T21:46:51.181Z,4.17
2019-02-24T21:49:19.803Z,4.05
2019-02-24T21:51:48.227Z,4.20
2019-02-24T21:54:16.725Z,3.35
2019-02-24T21:56:45.003Z,3.85
2019-02-24T21:59:13.492Z,4.47
2019-02-24T22:01:41.783Z,3.62
2019-02-24T22:04:10.507Z,4.03
2019-02-24T22:06:38.773Z,3.58
2019-02-24T22:09:10.199Z,3.05
2019-02-24T22:11:38.585Z,3.85
2019-02-24T22:14:07.119Z,3.02
2019-02-24T22:16:35.369Z,3.15
2019-02-24T22:19:03.620Z,2.62
2019-02-24T22:21:31.847Z,2.72
2019-02-24T22:24:00.129Z,2.72
2019-02-24T22:26:28.373Z,3.12
2019-02-24T22:28:56.510Z,3.55
2019-02-24T22:31:24.872Z,3.33
2019-02-24T22:33:53.056Z,3.52
2019-02-24T22:36:21.462Z,3.75
2019-02-24T22:38:49.693Z,3.10
2019-02-24T22:41:17.841Z,4.65
2019-02-24T22:43:45.979Z,5.10
2019-02-24T22:46:14.275Z,3.50
2019-02-24T22:48:42.406Z,3.65
2019-02-24T22:51:10.638Z,2.92
2019-02-24T22:53:38.803Z,4.15
2019-02-24T22:56:06.951Z,4.40
2019-02-24T22:58:35.186Z,4.62
2019-02-24T23:01:12.343Z,4.15
2019-02-24T23:03:42.225Z,4.58
2019-02-24T23:06:10.335Z,4.83
2019-02-24T23:08:38.643Z,3.65
2019-02-24T23:11:06.917Z,4.62
2019-02-24T23:13:35.058Z,4.92
2019-02-24T23:16:03.271Z,4.17
2019-02-24T23:18:31.419Z,5.08
2019-02-24T23:20:59.635Z,5.45
2019-02-24T23:23:27.820Z,3.75
2019-02-24T23:25:56.005Z,2.92
2019-02-24T23:28:24.198Z,4.47
2019-02-24T23:30:52.390Z,4.00
2019-02-24T23:33:20.558Z,4.22
2019-02-24T23:35:48.922Z,3.10
2019-02-24T23:38:17.074Z,3.90
2019-02-24T23:40:45.298Z,3.72
2019-02-24T23:43:13.536Z,3.47
2019-02-24T23:45:41.716Z,3.35
2019-02-24T23:48:09.937Z,3.45
2019-02-24T23:50:38.276Z,3.87
2019-02-24T23:53:06.792Z,2.80
2019-02-24T23:55:35.163Z,3.40
2019-02-24T23:58:03.350Z,3.30
